Time;durP1;ratioP1;P1;durP2;ratioP2;P2;SDS_P1;SDS_P2;PMS_P1;PMS_P2;Temp;Humidity;BMP_temperature;BMP_pressure;BME280_temperature;BME280_humidity;BME280_pressure;Samples;Min_cycle;Max_cycle;Signal;HPM_P1;HPM_P2
2021/04/23 00:00:40;;;;;;;7.13;3.60;;;7.20;99.90;;;;;;5030874;28;20049;-75
2021/04/23 00:03:11;;;;;;;;;;;7.20;99.90;;;;;;5032543;28;20112;-75
2021/04/23 00:05:38;;;;;;;5.03;3.17;;;7.20;99.90;;;;;;5034507;28;19952;-75
2021/04/23 00:08:04;;;;;;;4.88;2.85;;;7.20;99.90;;;;;;5043543;28;20052;-75
2021/04/23 00:10:30;;;;;;;5.15;3.80;;;7.20;99.90;;;;;;5055010;28;20068;-75
2021/04/23 00:12:56;;;;;;;3.88;2.97;;;7.20;99.90;;;;;;5050717;28;20013;-75
2021/04/23 00:15:23;;;;;;;5.38;3.00;;;7.00;99.90;;;;;;5033895;28;20041;-75
2021/04/23 00:17:49;;;;;;;5.05;3.78;;;6.90;99.90;;;;;;5036330;28;20049;-75
2021/04/23 00:20:20;;;;;;;5.60;4.32;;;6.80;99.90;;;;;;5054639;28;20108;-75
2021/04/23 00:22:45;;;;;;;8.07;4.32;;;6.70;99.90;;;;;;5053717;28;20036;-75
2021/04/23 00:25:12;;;;;;;4.85;4.35;;;7.00;99.90;;;;;;5041231;28;20030;-75
2021/04/23 00:27:39;;;;;;;5.25;2.80;;;6.90;99.90;;;;;;5035721;28;20072;-75
2021/04/23 00:30:06;;;;;;;7.93;4.82;;;6.80;99.90;;;;;;5037591;28;20037;-75
2021/04/23 00:32:32;;;;;;;11.45;5.90;;;6.40;99.90;;;;;;5054383;28;20048;-74
2021/04/23 00:34:58;;;;;;;12.13;5.63;;;6.40;99.90;;;;;;5035266;28;20075;-75
2021/04/23 00:37:23;;;;;;;13.10;6.18;;;6.20;99.90;;;;;;5035430;28;20028;-75
2021/04/23 00:39:49;;;;;;;6.20;3.83;;;6.30;99.90;;;;;;5046420;28;20037;-75
2021/04/23 00:42:15;;;;;;;4.90;3.35;;;6.60;99.90;;;;;;5054963;28;20029;-74
2021/04/23 00:44:41;;;;;;;5.10;3.30;;;6.70;99.90;;;;;;5055107;28;20056;-75
2021/04/23 00:47:07;;;;;;;6.93;4.10;;;6.40;99.90;;;;;;5046593;28;20092;-75
2021/04/23 00:49:33;;;;;;;3.72;3.08;;;6.20;99.90;;;;;;5034925;28;20033;-75
2021/04/23 00:52:02;;;;;;;4.30;2.88;;;6.20;99.90;;;;;;5035137;28;20057;-75
2021/04/23 00:54:29;;;;;;;3.38;2.83;;;6.40;99.90;;;;;;5049140;28;20029;-75
2021/04/23 00:56:55;;;;;;;5.97;3.38;;;6.50;99.90;;;;;;5042183;28;20424;-75
2021/04/23 00:59:23;;;;;;;6.82;3.45;;;6.40;99.90;;;;;;5034668;28;20076;-75
2021/04/23 01:02:10;;;;;;;5.30;3.35;;;6.20;99.90;;;;;;5033944;28;20069;-75
2021/04/23 01:04:37;;;;;;;5.85;3.03;;;6.10;99.90;;;;;;5034617;28;20487;-75
2021/04/23 01:07:03;;;;;;;4.90;2.88;;;6.10;99.90;;;;;;5034556;28;20021;-75
2021/04/23 01:09:31;;;;;;;4.45;2.85;;;6.10;99.90;;;;;;5033051;28;20040;-75
2021/04/23 01:11:59;;;;;;;4.93;3.53;;;6.00;99.90;;;;;;5034356;28;20112;-75
2021/04/23 01:14:26;;;;;;;6.57;3.35;;;6.00;99.90;;;;;;5034204;28;20029;-75
2021/04/23 01:16:52;;;;;;;3.58;2.78;;;6.10;99.90;;;;;;5033101;28;20025;-75
2021/04/23 01:19:21;;;;;;;6.45;3.75;;;6.20;99.90;;;;;;5034309;28;20514;-75
2021/04/23 01:21:48;;;;;;;5.90;2.85;;;6.30;99.90;;;;;;5033545;28;20021;-75
2021/04/23 01:24:17;;;;;;;4.05;2.85;;;6.20;99.90;;;;;;5034126;28;20076;-75
2021/04/23 01:26:50;;;;;;;3.30;3.00;;;6.00;99.90;;;;;;5034099;28;20025;-75
2021/04/23 01:29:18;;;;;;;6.65;3.75;;;6.00;99.90;;;;;;5034106;28;20022;-75
2021/04/23 01:31:47;;;;;;;4.97;3.47;;;6.10;99.90;;;;;;5033686;28;20426;-75
2021/04/23 01:34:29;;;;;;;7.70;4.03;;;6.10;99.90;;;;;;5034066;28;20041;-75
2021/04/23 01:36:57;;;;;;;7.03;3.97;;;6.20;99.90;;;;;;5033415;28;20302;-75
2021/04/23 01:39:25;;;;;;;6.95;3.85;;;6.00;99.90;;;;;;5034004;28;20033;-75
2021/04/23 01:41:52;;;;;;;9.27;5.18;;;5.70;99.90;;;;;;5033570;28;20025;-75
2021/04/23 01:44:19;;;;;;;11.02;4.93;;;5.70;99.90;;;;;;5033854;28;20022;-75
2021/04/23 01:46:45;;;;;;;11.98;6.05;;;5.70;99.90;;;;;;5033982;28;20488;-75
2021/04/23 01:49:14;;;;;;;7.40;4.13;;;5.80;99.90;;;;;;5033671;28;20051;-74
2021/04/23 01:51:42;;;;;;;5.83;3.63;;;5.90;99.90;;;;;;5033269;28;20017;-74
2021/04/23 01:54:10;;;;;;;6.05;4.63;;;5.80;99.90;;;;;;5033514;28;20283;-75
2021/04/23 01:56:37;;;;;;;10.82;8.25;;;5.80;99.90;;;;;;5033608;28;20475;-75
2021/04/23 01:59:05;;;;;;;11.90;8.82;;;5.90;99.90;;;;;;5033405;28;20057;-75
2021/04/23 02:01:32;;;;;;;20.38;15.63;;;6.00;99.90;;;;;;5033414;28;20050;-74
2021/04/23 02:03:58;;;;;;;33.78;20.88;;;6.00;99.90;;;;;;5033260;28;20029;-74
2021/04/23 02:06:24;;;;;;;8.43;5.85;;;6.10;99.90;;;;;;5031887;28;20052;-75
2021/04/23 02:08:51;;;;;;;7.88;4.22;;;6.00;99.90;;;;;;5033578;28;20088;-74
2021/04/23 02:11:18;;;;;;;6.57;4.85;;;5.80;99.90;;;;;;5033653;28;20036;-75
2021/04/23 02:13:46;;;;;;;8.68;6.00;;;5.50;99.90;;;;;;5033030;28;20017;-75
2021/04/23 02:16:15;;;;;;;9.98;6.18;;;5.50;99.90;;;;;;5033125;28;20025;-75
2021/04/23 02:18:41;;;;;;;7.18;4.93;;;5.40;99.90;;;;;;5033409;28;20491;-75
2021/04/23 02:21:08;;;;;;;8.05;5.80;;;5.60;99.90;;;;;;5032366;28;20076;-75
2021/04/23 02:23:35;;;;;;;6.32;5.15;;;5.80;99.90;;;;;;5032962;28;20061;-75
2021/04/23 02:26:02;;;;;;;8.00;5.78;;;5.90;99.90;;;;;;5032997;28;20033;-74
2021/04/23 02:28:28;;;;;;;7.15;5.85;;;6.00;99.90;;;;;;5032690;28;20076;-74
2021/04/23 02:30:59;;;;;;;4.97;3.83;;;6.10;99.90;;;;;;5032568;28;20522;-75
2021/04/23 02:33:25;;;;;;;4.65;3.47;;;6.20;99.90;;;;;;5032952;28;20017;-74
2021/04/23 02:35:53;;;;;;;4.95;3.90;;;6.00;99.90;;;;;;5031231;28;20033;-74
2021/04/23 02:38:20;;;;;;;3.00;2.70;;;5.80;99.90;;;;;;5032718;28;20128;-74
2021/04/23 02:40:47;;;;;;;4.05;3.22;;;5.60;99.90;;;;;;5032890;28;20053;-75
2021/04/23 02:43:19;;;;;;;5.75;3.20;;;5.60;99.90;;;;;;5032343;28;20030;-75
2021/04/23 02:45:46;;;;;;;4.03;3.10;;;5.30;99.90;;;;;;5032550;28;20115;-74
2021/04/23 02:48:13;;;;;;;2.78;2.58;;;5.40;99.90;;;;;;5031071;28;20033;-74
2021/04/23 02:50:41;;;;;;;7.10;3.08;;;5.30;99.90;;;;;;5032183;28;20021;-75
2021/04/23 02:53:07;;;;;;;2.85;2.53;;;5.50;99.90;;;;;;5032224;28;20029;-75
2021/04/23 02:55:33;;;;;;;3.47;2.35;;;5.40;99.90;;;;;;5032464;28;20391;-74
2021/04/23 02:58:46;;;;;;;3.80;3.38;;;5.50;99.90;;;;;;5032478;28;20113;-75
2021/04/23 03:01:17;;;;;;;4.13;3.03;;;5.60;99.90;;;;;;5035497;28;20147;-75
2021/04/23 03:03:43;;;;;;;7.28;3.92;;;5.30;99.90;;;;;;5030041;28;20108;-75
2021/04/23 03:06:11;;;;;;;4.88;3.92;;;5.20;99.90;;;;;;5029728;28;20506;-75
2021/04/23 03:08:37;;;;;;;8.45;3.83;;;5.10;99.90;;;;;;5043283;28;20106;-74
2021/04/23 03:11:16;;;;;;;5.43;3.78;;;5.20;99.90;;;;;;5050419;28;20025;-75
2021/04/23 03:13:44;;;;;;;8.48;3.40;;;5.20;99.90;;;;;;5041168;28;20095;-75
2021/04/23 03:16:10;;;;;;;7.53;4.32;;;5.30;99.90;;;;;;5040280;28;20116;-75
2021/04/23 03:18:39;;;;;;;6.07;4.15;;;5.20;99.90;;;;;;5030109;28;20123;-75
2021/04/23 03:21:06;;;;;;;4.32;2.92;;;5.20;99.90;;;;;;5037697;28;20165;-74
2021/04/23 03:23:32;;;;;;;4.20;3.53;;;5.30;99.90;;;;;;5025752;28;20037;-75
2021/04/23 03:26:00;;;;;;;4.28;3.10;;;5.40;99.90;;;;;;5029486;28;20073;-75
2021/04/23 03:28:26;;;;;;;4.05;3.38;;;5.40;99.90;;;;;;5032853;28;20037;-75
2021/04/23 03:30:52;;;;;;;3.00;2.70;;;5.20;99.90;;;;;;5050140;28;20040;-75
2021/04/23 03:33:18;;;;;;;5.43;4.18;;;5.10;99.90;;;;;;5047001;28;20475;-75
2021/04/23 03:35:52;;;;;;;6.43;5.22;;;5.10;99.90;;;;;;5050063;28;20037;-75
2021/04/23 03:38:19;;;;;;;7.50;4.47;;;5.00;99.90;;;;;;5031937;28;20042;-75
2021/04/23 03:40:46;;;;;;;5.28;4.22;;;5.10;99.90;;;;;;5035384;28;20029;-74
2021/04/23 03:43:12;;;;;;;4.20;3.67;;;5.20;99.90;;;;;;5036710;28;20026;-75
2021/04/23 03:45:39;;;;;;;4.30;3.83;;;5.30;99.90;;;;;;5036315;28;20108;-75
2021/04/23 03:48:07;;;;;;;5.35;3.78;;;5.30;99.90;;;;;;5036076;28;20079;-75
2021/04/23 03:50:35;;;;;;;3.17;2.70;;;5.30;99.90;;;;;;5034446;28;20357;-74
2021/04/23 03:53:04;;;;;;;3.20;2.63;;;5.20;99.90;;;;;;5016505;28;20030;-75
2021/04/23 03:55:33;;;;;;;10.00;4.63;;;4.90;99.90;;;;;;5053989;28;20032;-74
2021/04/23 03:58:00;;;;;;;4.55;4.15;;;4.90;99.90;;;;;;5018956;28;20028;-74
2021/04/23 04:00:37;;;;;;;5.45;4.68;;;4.70;99.90;;;;;;5036388;28;20534;-75
2021/04/23 04:03:04;;;;;;;7.95;4.32;;;5.00;99.90;;;;;;5035604;28;20030;-75
2021/04/23 04:05:30;;;;;;;4.85;4.13;;;5.10;99.90;;;;;;5035828;28;20116;-75
2021/04/23 04:07:56;;;;;;;4.47;3.40;;;5.20;99.90;;;;;;5043697;28;20112;-74
2021/04/23 04:10:22;;;;;;;4.80;2.88;;;5.10;99.90;;;;;;5055739;28;20047;-75
2021/04/23 04:12:48;;;;;;;3.28;2.88;;;5.20;99.90;;;;;;5050735;28;20021;-75
2021/04/23 04:15:14;;;;;;;3.80;3.20;;;5.10;99.90;;;;;;5035750;28;20036;-75
2021/04/23 04:17:40;;;;;;;4.20;3.05;;;4.70;99.90;;;;;;5035541;28;20026;-74
2021/04/23 04:20:09;;;;;;;4.00;3.63;;;4.60;99.90;;;;;;5036300;28;20033;-74
2021/04/23 04:22:35;;;;;;;4.10;3.30;;;4.60;99.90;;;;;;5034742;28;20060;-74
2021/04/23 04:25:02;;;;;;;3.50;3.00;;;4.60;99.90;;;;;;5035663;28;20487;-74
2021/04/23 04:27:28;;;;;;;7.28;2.75;;;4.70;99.90;;;;;;5038206;28;20062;-74
2021/04/23 04:29:54;;;;;;;3.33;3.03;;;4.70;99.90;;;;;;5033699;28;20433;-75
2021/04/23 04:32:21;;;;;;;3.97;3.00;;;4.70;99.90;;;;;;5033067;28;20029;-75
2021/04/23 04:34:48;;;;;;;5.30;3.58;;;4.60;99.90;;;;;;5034435;28;20025;-75
2021/04/23 04:37:13;;;;;;;4.53;3.38;;;4.40;99.90;;;;;;5035157;28;20097;-74
2021/04/23 04:39:39;;;;;;;5.97;3.28;;;4.50;99.90;;;;;;5034860;28;20096;-74
2021/04/23 04:42:06;;;;;;;8.27;3.35;;;4.50;99.90;;;;;;5035201;28;20051;-75
2021/04/23 04:44:33;;;;;;;4.68;2.95;;;4.50;99.90;;;;;;5034290;28;20036;-74
2021/04/23 04:46:59;;;;;;;3.60;3.30;;;4.50;99.90;;;;;;5033666;28;20036;-75
2021/04/23 04:49:25;;;;;;;6.10;3.15;;;4.40;99.90;;;;;;5033703;28;20030;-74
2021/04/23 04:51:51;;;;;;;2.83;2.53;;;4.30;99.90;;;;;;5033240;28;20454;-75
2021/04/23 04:54:17;;;;;;;4.45;2.67;;;4.00;99.90;;;;;;5033424;28;20483;-74
2021/04/23 04:56:43;;;;;;;2.58;2.00;;;3.40;99.90;;;;;;5033311;28;20025;-75
2021/04/23 04:59:08;;;;;;;2.67;2.13;;;3.20;99.90;;;;;;5033220;28;20087;-74
2021/04/23 05:01:34;;;;;;;3.38;2.65;;;3.50;99.90;;;;;;5036794;28;20115;-75
2021/04/23 05:04:00;;;;;;;3.10;2.80;;;3.60;99.90;;;;;;5033347;28;20044;-75
2021/04/23 05:06:26;;;;;;;3.95;3.00;;;3.80;99.90;;;;;;5033474;28;20029;-75
2021/04/23 05:08:51;;;;;;;4.50;2.80;;;3.80;99.90;;;;;;5041155;28;20060;-74
2021/04/23 05:11:18;;;;;;;4.43;3.20;;;4.00;99.90;;;;;;5055127;28;20529;-74
2021/04/23 05:13:44;;;;;;;4.05;3.63;;;4.10;99.90;;;;;;5043368;28;20096;-74
2021/04/23 05:16:10;;;;;;;3.25;2.90;;;4.10;99.90;;;;;;5046504;28;20467;-74
2021/04/23 05:18:36;;;;;;;3.75;2.90;;;4.30;99.90;;;;;;5046018;28;20382;-74
2021/04/23 05:21:02;;;;;;;3.60;3.20;;;4.30;99.90;;;;;;5045019;28;20494;-77
2021/04/23 05:23:28;;;;;;;5.68;4.20;;;4.30;99.90;;;;;;5042581;28;20092;-77
2021/04/23 05:25:53;;;;;;;4.65;3.05;;;4.50;99.90;;;;;;5034720;28;20033;-77
2021/04/23 05:28:20;;;;;;;4.30;2.70;;;4.60;99.90;;;;;;5034205;28;20493;-77
2021/04/23 05:30:46;;;;;;;6.50;3.00;;;4.70;99.90;;;;;;5040944;28;20108;-78
2021/04/23 05:33:12;;;;;;;6.60;3.60;;;4.60;99.90;;;;;;5038036;28;20097;-78
2021/04/23 05:35:40;;;;;;;7.75;4.47;;;4.50;99.90;;;;;;5034624;28;20045;-78
2021/04/23 05:38:06;;;;;;;6.72;5.20;;;4.40;99.90;;;;;;5033020;28;20124;-78
2021/04/23 05:40:37;;;;;;;9.07;5.60;;;4.40;99.90;;;;;;5033760;28;20041;-78
2021/04/23 05:43:05;;;;;;;13.48;4.85;;;4.50;99.90;;;;;;5033171;28;20025;-78
2021/04/23 05:45:31;;;;;;;32.17;8.25;;;4.70;99.90;;;;;;5034943;28;20025;-78
2021/04/23 05:47:57;;;;;;;18.55;5.70;;;4.70;99.90;;;;;;5048498;28;20021;-78
2021/04/23 05:50:25;;;;;;;23.73;6.18;;;4.70;99.90;;;;;;5040551;28;20024;-79
2021/04/23 05:52:52;;;;;;;32.60;5.50;;;4.50;99.90;;;;;;5027030;28;20049;-79
2021/04/23 05:55:25;;;;;;;12.35;5.22;;;4.40;99.90;;;;;;5032894;28;20491;-78
2021/04/23 05:57:52;;;;;;;23.92;5.50;;;4.50;99.90;;;;;;5032408;28;20051;-77
2021/04/23 06:00:19;;;;;;;7.32;5.50;;;4.80;99.90;;;;;;5036413;28;20069;-78
2021/04/23 06:02:50;;;;;;;4.03;3.67;;;5.10;99.90;;;;;;5041714;28;20090;-78
2021/04/23 06:05:17;;;;;;;4.75;3.97;;;5.10;99.90;;;;;;5033903;28;20026;-77
2021/04/23 06:07:43;;;;;;;4.25;3.60;;;5.20;99.90;;;;;;5034182;28;20095;-78
2021/04/23 06:10:11;;;;;;;3.92;3.47;;;5.40;99.90;;;;;;5033821;28;20448;-78
2021/04/23 06:12:36;;;;;;;4.30;3.25;;;5.50;99.90;;;;;;5039289;28;20022;-78
2021/04/23 06:15:06;;;;;;;3.42;3.13;;;5.50;99.90;;;;;;5036559;28;20474;-78
2021/04/23 06:17:31;;;;;;;3.35;3.13;;;5.60;99.90;;;;;;5033224;28;20034;-78
2021/04/23 06:19:58;;;;;;;4.43;2.92;;;5.80;99.90;;;;;;5033690;28;20041;-80
2021/04/23 06:22:24;;;;;;;3.92;3.53;;;5.60;99.90;;;;;;5036790;28;20022;-78
2021/04/23 06:24:50;;;;;;;3.55;3.25;;;5.60;99.90;;;;;;5033231;28;20025;-77
2021/04/23 06:27:16;;;;;;;5.40;3.25;;;5.80;99.90;;;;;;5036374;28;20033;-78
2021/04/23 06:29:43;;;;;;;4.75;3.42;;;6.00;99.90;;;;;;5050110;28;20056;-77
2021/04/23 06:32:09;;;;;;;3.88;3.33;;;6.20;99.90;;;;;;5043285;28;20021;-77
2021/04/23 06:34:34;;;;;;;3.85;3.38;;;6.40;99.90;;;;;;5037664;28;20025;-77
2021/04/23 06:37:01;;;;;;;3.28;2.97;;;6.60;99.90;;;;;;5034214;28;20049;-77
2021/04/23 06:39:27;;;;;;;5.57;3.92;;;6.70;99.90;;;;;;5039508;28;20032;-77
2021/04/23 06:41:53;;;;;;;4.78;2.85;;;6.80;99.90;;;;;;5033780;28;20025;-78
2021/04/23 06:44:19;;;;;;;7.70;3.20;;;7.00;99.90;;;;;;5035214;28;20030;-78
2021/04/23 06:46:45;;;;;;;3.00;2.80;;;7.10;99.90;;;;;;5032644;28;20032;-78
2021/04/23 06:49:12;;;;;;;4.22;3.35;;;7.30;99.90;;;;;;5032604;28;20021;-78
2021/04/23 06:51:42;;;;;;;5.32;3.53;;;7.50;99.90;;;;;;5034030;28;20053;-78
2021/04/23 06:54:08;;;;;;;5.80;3.25;;;7.50;99.90;;;;;;5034987;28;20028;-77
2021/04/23 06:56:34;;;;;;;3.78;3.10;;;7.70;99.90;;;;;;5037772;28;20033;-78
2021/04/23 06:59:00;;;;;;;3.03;2.72;;;7.90;99.90;;;;;;5041941;28;20018;-77
2021/04/23 07:01:27;;;;;;;3.33;2.97;;;8.00;99.90;;;;;;5035561;28;20055;-77
2021/04/23 07:03:53;;;;;;;5.00;4.10;;;8.20;99.90;;;;;;5032935;28;20572;-77
2021/04/23 07:06:20;;;;;;;4.47;3.80;;;8.50;99.90;;;;;;5032715;28;20152;-77
2021/04/23 07:08:46;;;;;;;4.68;4.13;;;8.60;99.90;;;;;;5023556;28;20499;-77
2021/04/23 07:11:12;;;;;;;4.55;3.65;;;8.90;99.90;;;;;;5036096;28;20028;-77
2021/04/23 07:13:38;;;;;;;3.70;3.33;;;9.10;99.90;;;;;;5032433;28;20021;-77
2021/04/23 07:16:04;;;;;;;3.15;2.85;;;9.30;99.90;;;;;;5036941;28;20113;-77
2021/04/23 07:18:30;;;;;;;4.45;2.78;;;9.40;99.90;;;;;;5038056;28;20025;-78
2021/04/23 07:20:56;;;;;;;2.65;2.45;;;9.50;99.90;;;;;;5033670;28;20056;-81
2021/04/23 07:23:22;;;;;;;5.32;2.42;;;9.70;99.90;;;;;;5032268;28;20116;-82
2021/04/23 07:25:48;;;;;;;12.50;3.85;;;9.80;99.90;;;;;;5031985;28;20199;-81
2021/04/23 07:28:14;;;;;;;2.90;2.67;;;9.90;99.90;;;;;;5034513;28;20057;-81
2021/04/23 07:30:41;;;;;;;4.45;2.70;;;10.00;99.90;;;;;;5035714;28;20442;-82
2021/04/23 07:33:13;;;;;;;9.55;6.80;;;10.00;99.90;;;;;;5036753;28;20022;-81
2021/04/23 07:35:40;;;;;;;2.42;2.22;;;10.30;99.90;;;;;;5035530;28;20029;-81
2021/04/23 07:38:06;;;;;;;2.40;2.20;;;10.40;99.90;;;;;;5038942;28;20462;-81
2021/04/23 07:40:32;;;;;;;2.20;2.05;;;10.60;99.90;;;;;;5062930;28;20108;-81
2021/04/23 07:43:00;;;;;;;3.85;2.17;;;10.70;99.90;;;;;;5036173;28;20017;-81
2021/04/23 07:45:26;;;;;;;2.17;1.98;;;10.80;99.90;;;;;;5036238;28;20029;-81
2021/04/23 07:47:52;;;;;;;2.33;2.13;;;10.90;99.90;;;;;;5029816;28;20029;-81
2021/04/23 07:50:20;;;;;;;2.58;1.80;;;11.10;99.90;;;;;;5038571;28;20021;-81
2021/04/23 07:52:46;;;;;;;2.40;1.60;;;11.20;99.90;;;;;;5032090;28;20026;-82
2021/04/23 07:55:13;;;;;;;2.70;1.63;;;11.40;99.90;;;;;;5039619;28;20193;-81
2021/04/23 07:57:39;;;;;;;1.77;1.40;;;11.70;99.90;;;;;;5037958;28;20022;-81
2021/04/23 08:00:10;;;;;;;1.40;1.30;;;11.90;99.90;;;;;;5030806;28;20049;-81
2021/04/23 08:02:37;;;;;;;2.08;1.63;;;12.10;99.90;;;;;;5032103;28;20686;-81
2021/04/23 08:05:04;;;;;;;2.30;1.90;;;12.20;99.90;;;;;;5038707;28;20025;-81
2021/04/23 08:07:29;;;;;;;4.45;2.17;;;12.50;99.90;;;;;;5037874;28;20415;-81
2021/04/23 08:09:55;;;;;;;4.00;2.33;;;12.60;99.90;;;;;;5038845;28;20025;-81
2021/04/23 08:12:21;;;;;;;2.53;1.65;;;12.90;99.90;;;;;;5033386;28;20037;-81
2021/04/23 08:14:47;;;;;;;2.22;1.17;;;13.30;99.90;;;;;;5036592;28;20026;-79
2021/04/23 08:17:13;;;;;;;1.23;1.20;;;13.70;99.90;;;;;;5037621;28;20045;-79
2021/04/23 08:19:39;;;;;;;5.13;1.35;;;13.80;99.90;;;;;;5039967;28;20483;-79
2021/04/23 08:22:05;;;;;;;1.00;1.00;;;13.90;99.90;;;;;;5039674;28;20032;-79
2021/04/23 08:24:31;;;;;;;2.58;1.05;;;14.20;99.90;;;;;;5032623;28;20037;-79
2021/04/23 08:26:59;;;;;;;1.48;0.80;;;14.50;99.90;;;;;;5034159;28;20029;-78
2021/04/23 08:29:25;;;;;;;2.40;0.90;;;14.90;95.30;;;;;;5037821;28;20032;-79
2021/04/23 08:31:50;;;;;;;1.00;0.90;;;15.10;97.70;;;;;;5041031;28;20014;-78
2021/04/23 08:34:17;;;;;;;1.77;1.05;;;15.30;98.00;;;;;;5042960;28;20036;-79
2021/04/23 08:36:43;;;;;;;1.30;0.75;;;15.70;91.40;;;;;;5043868;28;20025;-80
2021/04/23 08:39:10;;;;;;;1.50;0.88;;;16.30;91.30;;;;;;5034486;28;20079;-79
2021/04/23 08:41:38;;;;;;;1.65;0.70;;;16.70;89.00;;;;;;5038711;28;20026;-83
2021/04/23 08:44:05;;;;;;;0.77;0.75;;;16.90;80.70;;;;;;5039632;28;20029;-82
2021/04/23 08:46:34;;;;;;;1.77;0.73;;;17.50;78.80;;;;;;5038201;28;20026;-83
2021/04/23 08:49:01;;;;;;;2.33;0.73;;;17.80;77.30;;;;;;5042002;28;20494;-82
2021/04/23 08:51:28;;;;;;;1.02;0.57;;;17.70;73.10;;;;;;5034100;28;20021;-82
2021/04/23 08:53:55;;;;;;;0.90;0.75;;;17.70;74.40;;;;;;5039626;28;20048;-78
2021/04/23 08:56:21;;;;;;;0.93;0.93;;;18.10;76.90;;;;;;5037579;28;20039;-78
2021/04/23 08:58:47;;;;;;;1.10;1.00;;;18.10;71.30;;;;;;5041039;28;20134;-78
2021/04/23 09:01:14;;;;;;;1.95;0.55;;;18.30;72.50;;;;;;5035212;28;20034;-78
2021/04/23 09:03:40;;;;;;;1.25;0.82;;;18.40;68.30;;;;;;5042415;28;20126;-78
2021/04/23 09:06:21;;;;;;;1.48;0.60;;;18.60;69.00;;;;;;5047302;28;20488;-78
2021/04/23 09:08:56;;;;;;;4.18;0.90;;;18.90;67.60;;;;;;5047715;28;20466;-78
2021/04/23 09:11:26;;;;;;;0.80;0.80;;;19.20;66.80;;;;;;5038772;28;20036;-78
2021/04/23 09:14:00;;;;;;;2.15;0.80;;;19.00;62.50;;;;;;5037848;28;20025;-78
2021/04/23 09:16:56;;;;;;;2.20;1.13;;;19.00;61.90;;;;;;5041899;28;20025;-78
2021/04/23 09:19:26;;;;;;;1.02;0.80;;;19.40;62.60;;;;;;5042521;28;20108;-78
2021/04/23 09:22:02;;;;;;;2.75;1.15;;;19.50;61.70;;;;;;5033191;28;20036;-78
2021/04/23 09:24:34;;;;;;;1.10;1.00;;;19.90;61.70;;;;;;5036990;28;20030;-78
2021/04/23 09:27:10;;;;;;;1.30;1.20;;;20.30;59.80;;;;;;5034955;28;20104;-78
2021/04/23 09:29:38;;;;;;;2.03;1.10;;;21.50;57.40;;;;;;5039907;28;20053;-79
2021/04/23 09:32:14;;;;;;;2.00;1.33;;;23.40;52.30;;;;;;5036334;28;20112;-79
2021/04/23 09:35:00;;;;;;;2.10;1.48;;;25.00;48.70;;;;;;5036853;28;20032;-79
2021/04/23 09:37:39;;;;;;;8.07;2.15;;;27.60;44.40;;;;;;5030429;28;20033;-79
2021/04/23 09:40:08;;;;;;;1.70;1.60;;;27.80;43.30;;;;;;5031149;28;20136;-78
2021/04/23 09:42:56;;;;;;;1.60;1.50;;;27.50;41.60;;;;;;5033900;28;20104;-78
2021/04/23 09:45:24;;;;;;;6.35;1.88;;;28.30;42.40;;;;;;5034168;28;20028;-79
2021/04/23 09:47:50;;;;;;;12.45;2.28;;;28.30;42.30;;;;;;5034559;28;20057;-80
2021/04/23 09:50:18;;;;;;;2.65;1.77;;;29.50;40.70;;;;;;5034267;28;20036;-80
2021/04/23 09:52:51;;;;;;;3.67;1.50;;;30.40;38.70;;;;;;5034196;28;20045;-80
2021/04/23 09:55:19;;;;;;;2.00;1.90;;;30.50;38.80;;;;;;5033636;28;20105;-80
2021/04/23 09:57:53;;;;;;;1.83;1.58;;;30.50;38.80;;;;;;5033842;28;20053;-80
2021/04/23 10:00:24;;;;;;;1.88;1.77;;;30.60;38.30;;;;;;5033300;28;20044;-80
2021/04/23 10:02:53;;;;;;;2.58;2.20;;;31.10;36.20;;;;;;5033897;28;20037;-80
2021/04/23 10:05:31;;;;;;;1.60;1.60;;;31.40;37.50;;;;;;5033365;28;20053;-80
2021/04/23 10:07:57;;;;;;;2.00;1.90;;;30.30;36.20;;;;;;5033631;28;20041;-77
2021/04/23 10:10:23;;;;;;;2.03;1.92;;;30.70;35.80;;;;;;5033595;28;20029;-77
2021/04/23 10:12:53;;;;;;;7.82;1.90;;;31.20;36.20;;;;;;5033537;28;20033;-77
2021/04/23 10:15:39;;;;;;;2.10;2.00;;;31.10;36.60;;;;;;5033301;28;20032;-77
2021/04/23 10:18:08;;;;;;;2.50;1.70;;;31.00;35.60;;;;;;5031890;28;20102;-77
2021/04/23 10:20:38;;;;;;;1.90;1.80;;;30.60;35.60;;;;;;5033355;28;20033;-77
2021/04/23 10:23:06;;;;;;;3.15;2.10;;;31.00;35.60;;;;;;5032140;28;20030;-77
2021/04/23 10:25:33;;;;;;;2.88;1.73;;;33.00;34.30;;;;;;5033264;28;20040;-77
2021/04/23 10:28:00;;;;;;;2.35;1.80;;;31.60;35.50;;;;;;5033395;28;20029;-76
2021/04/23 10:30:29;;;;;;;2.22;2.00;;;33.30;34.90;;;;;;5033225;28;20017;-76
2021/04/23 10:32:57;;;;;;;2.20;2.10;;;32.40;34.30;;;;;;5032905;28;20021;-76
2021/04/23 10:35:24;;;;;;;2.50;2.30;;;33.30;34.70;;;;;;5033138;28;20398;-76
2021/04/23 10:37:51;;;;;;;2.08;1.98;;;33.90;34.00;;;;;;5033451;28;20047;-76
2021/04/23 10:40:20;;;;;;;4.50;2.30;;;33.10;33.60;;;;;;5033183;28;20159;-76
2021/04/23 10:42:58;;;;;;;2.13;2.03;;;33.70;34.10;;;;;;5033162;28;20032;-77
2021/04/23 10:45:26;;;;;;;3.72;2.10;;;34.30;32.00;;;;;;5033114;28;20030;-77
2021/04/23 10:47:57;;;;;;;2.25;2.15;;;33.60;33.70;;;;;;5032483;28;20036;-77
2021/04/23 10:50:26;;;;;;;2.33;2.22;;;35.40;34.70;;;;;;5032682;28;20033;-77
2021/04/23 10:53:08;;;;;;;7.20;2.83;;;36.50;33.60;;;;;;5031514;28;20589;-76
2021/04/23 10:55:45;;;;;;;2.97;2.45;;;34.80;33.40;;;;;;5031379;28;20348;-77
2021/04/23 10:58:36;;;;;;;2.63;2.40;;;33.70;34.40;;;;;;5032683;28;20053;-77
2021/04/23 11:01:14;;;;;;;5.25;2.58;;;33.90;35.50;;;;;;5031996;28;20057;-77
2021/04/23 11:03:44;;;;;;;2.45;2.35;;;34.00;35.50;;;;;;5032314;28;20091;-77
2021/04/23 11:06:12;;;;;;;;;;;34.70;33.60;;;;;;5033231;28;20087;-77
2021/04/23 11:08:38;;;;;;;4.00;2.85;;;34.20;34.20;;;;;;5032501;28;19966;-77
2021/04/23 11:11:13;;;;;;;21.15;3.20;;;34.30;34.20;;;;;;5032668;28;20395;-77
2021/04/23 11:13:41;;;;;;;2.47;2.38;;;33.50;33.80;;;;;;5032576;28;20112;-77
2021/04/23 11:16:25;;;;;;;2.45;2.35;;;34.80;34.00;;;;;;5032120;28;20025;-77
2021/04/23 11:19:14;;;;;;;2.50;2.40;;;34.00;33.70;;;;;;5032501;28;20025;-77
2021/04/23 11:21:40;;;;;;;3.65;2.30;;;35.60;34.40;;;;;;5032419;28;20040;-77
2021/04/23 11:24:26;;;;;;;2.67;2.42;;;33.90;33.30;;;;;;5032516;28;20029;-77
2021/04/23 11:26:58;;;;;;;2.90;2.22;;;33.90;33.40;;;;;;5032300;28;20038;-77
2021/04/23 11:29:28;;;;;;;2.50;2.40;;;36.20;32.90;;;;;;5032416;28;20054;-77
2021/04/23 11:32:19;;;;;;;2.40;2.30;;;35.90;30.80;;;;;;5032078;28;20047;-77
2021/04/23 11:34:50;;;;;;;2.72;2.53;;;36.70;31.10;;;;;;5032266;28;20025;-77
2021/04/23 11:37:26;;;;;;;2.55;2.45;;;35.60;31.30;;;;;;5031112;28;20021;-77
2021/04/23 11:39:54;;;;;;;2.50;2.40;;;35.30;33.00;;;;;;5032095;28;20037;-77
2021/04/23 11:42:29;;;;;;;2.47;2.28;;;37.30;31.50;;;;;;5032301;28;20394;-77
2021/04/23 11:45:13;;;;;;;6.05;3.60;;;36.70;32.70;;;;;;5032183;28;20109;-77
2021/04/23 11:47:40;;;;;;;3.13;2.97;;;37.30;32.50;;;;;;5031861;28;20029;-77
2021/04/23 11:50:06;;;;;;;3.47;2.60;;;36.60;31.40;;;;;;5032326;28;20049;-77
2021/04/23 11:52:33;;;;;;;2.60;2.40;;;37.50;32.20;;;;;;5031912;28;20029;-77
2021/04/23 11:55:04;;;;;;;2.88;2.67;;;36.90;31.30;;;;;;5032187;28;20104;-77
2021/04/23 11:57:30;;;;;;;2.58;2.47;;;36.40;31.30;;;;;;5031968;28;20084;-77
2021/04/23 12:00:03;;;;;;;4.00;2.67;;;35.80;31.10;;;;;;5031604;28;20116;-77
2021/04/23 12:02:57;;;;;;;2.33;2.15;;;35.60;32.10;;;;;;5036032;28;20025;-77
2021/04/23 12:05:27;;;;;;;3.22;3.03;;;37.10;30.90;;;;;;5035568;28;20154;-77
2021/04/23 12:07:56;;;;;;;2.47;2.38;;;36.10;31.60;;;;;;5035839;28;20055;-77
2021/04/23 12:10:24;;;;;;;2.40;2.30;;;35.10;31.70;;;;;;5036037;28;20438;-77
2021/04/23 12:12:50;;;;;;;55.92;5.65;;;35.50;32.10;;;;;;5035914;28;20026;-77
2021/04/23 12:15:22;;;;;;;2.53;2.42;;;35.60;33.50;;;;;;5035482;28;20025;-77
2021/04/23 12:17:48;;;;;;;4.43;2.58;;;35.50;31.80;;;;;;5035580;28;20071;-77
2021/04/23 12:20:25;;;;;;;4.00;3.08;;;34.50;32.30;;;;;;5035752;28;20483;-77
2021/04/23 12:22:52;;;;;;;2.55;2.45;;;36.70;32.20;;;;;;5035638;28;20100;-77
2021/04/23 12:25:18;;;;;;;2.75;2.55;;;36.40;31.90;;;;;;5035756;28;20045;-77
2021/04/23 12:27:44;;;;;;;3.05;2.45;;;35.60;32.60;;;;;;5035544;28;20064;-77
2021/04/23 12:30:10;;;;;;;2.53;2.33;;;36.50;32.40;;;;;;5035331;28;20071;-77
2021/04/23 12:32:36;;;;;;;2.92;2.40;;;36.30;32.00;;;;;;5035529;28;20502;-77
2021/04/23 12:35:02;;;;;;;2.25;2.15;;;36.70;32.10;;;;;;5035597;28;20025;-77
2021/04/23 12:37:28;;;;;;;2.42;2.33;;;36.00;31.40;;;;;;5035443;28;20025;-77
2021/04/23 12:39:54;;;;;;;2.13;2.03;;;35.70;31.10;;;;;;5035374;28;20035;-77
2021/04/23 12:42:26;;;;;;;2.78;2.50;;;35.30;32.70;;;;;;5035355;28;20098;-77
2021/04/23 12:44:58;;;;;;;2.70;2.50;;;35.30;31.90;;;;;;5035007;28;20510;-77
2021/04/23 12:47:24;;;;;;;3.28;2.65;;;36.40;30.70;;;;;;5035450;28;20033;-77
2021/04/23 12:49:50;;;;;;;2.55;2.42;;;35.40;30.90;;;;;;5035045;28;20411;-77
2021/04/23 12:52:18;;;;;;;3.90;2.53;;;34.90;32.10;;;;;;5035041;28;20506;-77
2021/04/23 12:54:50;;;;;;;2.45;2.35;;;34.10;32.10;;;;;;5033859;28;20032;-77
2021/04/23 12:57:28;;;;;;;32.90;3.33;;;34.30;32.30;;;;;;5034857;28;20017;-77
2021/04/23 13:00:09;;;;;;;2.53;2.33;;;35.40;31.10;;;;;;5034095;28;20555;-77